Tiempo atmosférico en la estación meteorológica de Alcazar De San Juan, Ciudad Real (664 m.)

Fecha
DESCASC
Temp. máxima en grados centígrados (hora)
DESCASC
Temp. mínima en grados centígrados (hora)
DESCASC
Temp. media en grados centígrados
DESCASC
Racha de viento máxima en m/sg (hora)
DESCASC
Velocidad máxima media en intervalos de 10 minutos(hora)
DESCASC
Precipitaciones diarias en mm
DESCASC
Precipitaciones de 00:00 a 06:00 en mm
DESCASC
Precipitaciones de 06:00 a 12:00 en mm
DESCASC
Precipitaciones de 12:00 a 18:00 en mm
DESCASC
Precipitaciones de 18:00 a 24:00 en mm
DESCASC
21-09-2017 30.9 (16:20) 14.6 (08:10) 22.8 6.39 (16:40) 2.5 (16:40) 0 0 0 0 0
20-09-2017 29.8 (16:30) 13.9 (06:50) 21.8 5.28 (09:00) 1.94 (17:00) 0 0 0 0 0
19-09-2017 27 (17:00) 11.5 (08:10) 19.3 8.06 (16:30) 2.22 (17:10) 0 0 0 0 0
18-09-2017 26.3 (15:50) 10.9 (08:20) 18.6 9.44 (17:30) 3.61 (16:10) 0 0 0 0 0
17-09-2017 27.4 (17:00) 9.4 (00:00) 18.4 7.5 (15:50) 2.78 (16:50) 0 0 0 0 0
16-09-2017 23.5 (16:20) 11.7 (00:00) 17.6 6.67 (17:50) 2.5 (16:40) 0 0 0 0 0
15-09-2017 25.5 (16:20) 15.7 (00:00) 20.6 8.89 (18:40) 3.61 (18:10) 0 0 0 0 0
14-09-2017 32.7 (16:00) 16.5 (00:00) 24.6 8.33 (15:40) 3.61 (16:10) 0 0 0 0 0
13-09-2017 33.3 (17:10) 15.7 (00:00) 24.5 7.5 (09:10) 2.5 (18:00) 0 0 0 0 0
12-09-2017 29.1 (17:00) 15.6 (00:00) 22.4 6.67 (16:40) 3.06 (12:30) 0 0 0 0 0
11-09-2017 32.6 (17:50) 13.5 (00:00) 23 7.5 (16:00) 3.33 (19:40) 0 0 0 0 0
10-09-2017 24.1 (16:50) 11.2 (00:00) 17.7 8.61 (17:00) 3.33 (17:00) 0 0 0 0 0
09-09-2017 25.3 (15:30) 15.5 (00:00) 20.4 9.72 (22:50) 4.17 (20:20) 0 0 0 0 0
08-09-2017 33.8 (17:40) 16.6 (00:00) 25.2 8.33 (18:50) 3.33 (17:20) 0 0 0 0 0
07-09-2017 31.3 (18:10) 19.5 (00:00) 25.4 7.5 (02:10) 2.78 (02:10) 0 0 0 0 0
06-09-2017 35.1 (17:30) 19.3 (00:00) 27.2 9.17 (21:00) 3.89 (21:00) 0 0 0 0 0
05-09-2017 33.5 (16:50) 18.5 (00:00) 26 7.22 (01:40) 3.06 (10:10) 0 0 0 0 0
04-09-2017 30.6 (17:20) 16 (00:00) 23.3 5.83 (16:40) 2.5 (11:30) 0 0 0 0 0
03-09-2017 33 (17:20) 16.5 (00:00) 24.8 6.11 (19:00) 2.5 (18:00) 0 0 0 0 0
02-09-2017 29.7 (18:00) 17.3 (00:00) 23.5 7.22 (04:00) 3.33 (09:10) 0 0 0 0 0
01-09-2017 31 (17:20) 18.6 (00:00) 24.8 6.67 (10:10) 3.06 (23:40) 0 0 0 0 0
31-08-2017 30.3 (17:40) 16.4 (00:00) 23.3 6.11 (19:20) 2.22 (15:00) 0 0 0 0 0
30-08-2017 28.3 (16:50) 16 (00:00) 22.1 7.22 (17:00) 2.78 (16:00) 0.2 0.2 0 0 0
29-08-2017 28 (17:40) 16.6 (00:00) 22.3 8.06 (16:50) 3.33 (15:40) 0 0 0 0 0
28-08-2017 25.7 (13:40) 17.7 (00:00) 21.7 8.33 (16:20) 3.89 (16:10) 7.4 0 0 1.4 6
27-08-2017 28.6 (12:30) 21.5 (00:00) 25.1 11.67 (17:30) 6.39 (17:40) 0.4 0 0 0.4 0
26-08-2017 34.5 (13:40) 21.9 (00:00) 28.2 7.22 (16:30) 3.33 (16:30) 0 0 0 0 0
25-08-2017 37.2 (16:50) 21.1 (00:00) 29.2 13.33 (18:30) 5 (18:20) 0 0 0 0 0

Gráficas

Temp. máximas Temp. mínimas Temp. medias Precipitaciones Rachas de viento máximas Velocidades máximas media en intervalos de 10 minutos

Datos horarios

Fecha y hora oficial Temperatura (ºC) Velocidad del viento (km/h) Dirección del viento Racha (km/h) Dirección de racha Precipitación (mm) Presión (hPa) Tendencia (hPa) Humedad (%)
2017-09-23 23:00:00 22.2 3 Sudeste 9 Este 0 -- -- 37
2017-09-23 22:00:00 22.8 0 Calma 6 Nordeste 0 -- -- 37
2017-09-23 21:00:00 24.1 0 Calma 3 Sudoeste 0 -- -- 37
2017-09-23 20:00:00 26.3 0 Calma 8 Sudeste 0 -- -- 31
2017-09-23 19:00:00 27.7 2 Noroeste 9 Sur 0 -- -- 29
2017-09-23 18:00:00 28.6 4 Sur 16 Oeste 0 -- -- 27
2017-09-23 17:00:00 29.3 4 Noroeste 12 Sudeste 0 -- -- 27
2017-09-23 16:00:00 28.6 4 Sudeste 12 Este 0 -- -- 31
2017-09-23 15:00:00 27.3 3 Noroeste 14 Sur 0 -- -- 35
2017-09-23 14:00:00 26.6 4 Sur 15 Sur 0 -- -- 39
2017-09-23 13:00:00 25 8 Sur 18 Sur 0 -- -- 44
2017-09-23 12:00:00 22.8 6 Sudeste 14 Sur 0 -- -- 52
2017-09-23 11:00:00 20.6 5 Sudeste 14 Este 0 -- -- 60
2017-09-23 10:00:00 17.2 5 Sudeste 13 Este 0 -- -- 74
2017-09-23 09:00:00 15.3 4 Sudeste 20 Sudeste 0 -- -- 83
2017-09-23 08:00:00 15.1 6 Sudeste 19 Sudeste 0 -- -- 83
2017-09-23 07:00:00 15.4 7 Sudeste 24 Este 0 -- -- 82
2017-09-23 06:00:00 15.9 5 Sudeste 24 Este 0 -- -- 81
2017-09-23 05:00:00 16.4 6 Sudeste 24 Sudeste 0 -- -- 80
2017-09-23 04:00:00 17.1 10 Sudeste 25 Este 0 -- -- 76
2017-09-23 03:00:00 17.6 12 Sudeste 28 Este 0 -- -- 72
2017-09-23 02:00:00 18.2 11 Sudeste 36 Este 0 -- -- 68
2017-09-23 01:00:00 19.2 12 Sudeste 36 Este 0 -- -- 66
2017-09-23 00:00:00 20.2 12 Sudeste 31 Este 0 -- -- 63
2017-09-22 23:00:00 21.7 9 Sudeste 24 Este 0 -- -- 53
2017-09-22 22:00:00 23.2 8 Sudeste 21 Este 0 -- -- 45
2017-09-22 21:00:00 24.6 8 Sudeste 21 Este 0 -- -- 34
2017-09-22 20:00:00 26.4 7 Sudeste 22 Este 0 -- -- 30
2017-09-22 19:00:00 28 6 Sudeste 18 Sudeste 0 -- -- 28
2017-09-22 18:00:00 29.3 5 Sur 22 Sur 0 -- -- 21
2017-09-22 17:00:00 29.5 6 Sur 17 Sur 0 -- -- 22
2017-09-22 16:00:00 29.2 3 Norte 18 Sur 0 -- -- 24
2017-09-22 15:00:00 28.5 4 Sur 18 Sur 0 -- -- 26
2017-09-22 14:00:00 27.3 5 Sudeste 13 Sur 0 -- -- 28
2017-09-22 13:00:00 25.6 3 Este 10 Este 0 -- -- 33
2017-09-22 12:00:00 23.5 4 Sudeste 11 Sudeste 0 -- -- 41
2017-09-22 11:00:00 21.2 4 Este 12 Nordeste 0 -- -- 53
2017-09-22 10:00:00 18.1 5 Sudeste 15 Este 0 -- -- 66
2017-09-22 09:00:00 15.9 4 Sudeste 17 Este 0 -- -- 71
2017-09-22 08:00:00 16 4 Sudeste 13 Este 0 -- -- 70
2017-09-22 07:00:00 16.8 3 Sudeste 15 Este 0 -- -- 72
2017-09-22 06:00:00 17.6 4 Sudeste 13 Este 0 -- -- 67
2017-09-22 05:00:00 18.8 4 Sudeste 13 Este 0 -- -- 60
2017-09-22 04:00:00 19.6 0 Calma 9 Nordeste 0 -- -- 56
2017-09-22 03:00:00 19.8 2 Nordeste 6 Nordeste 0 -- -- 49
2017-09-22 02:00:00 20.4 3 Norte 10 Nordeste 0 -- -- 35
2017-09-22 01:00:00 21.6 3 Noroeste 10 Noroeste 0 -- -- 33
2017-09-22 00:00:00 22.3 2 Oeste 8 Norte 0 -- -- 32
2017-09-21 23:00:00 23 2 Nordeste 8 Noroeste 0 -- -- 30
2017-09-21 22:00:00 23.5 2 Noroeste 8 Noroeste 0 -- -- 31
2017-09-21 21:00:00 25.2 0 Calma 6 Oeste 0 -- -- 28
2017-09-21 20:00:00 27.3 2 Sudoeste 12 Sur 0 -- -- 25
2017-09-21 19:00:00 29 5 Sudoeste 17 Oeste 0 -- -- 22
2017-09-21 18:00:00 30.5 4 Noroeste 17 Sudoeste 0 -- -- 21
2017-09-21 17:00:00 30.7 8 Sudoeste 23 Sudoeste 0 -- -- 21
2017-09-21 16:00:00 30.4 8 Sur 21 Sudeste 0 -- -- 23
2017-09-21 15:00:00 30.1 6 Sur 18 Sur 0 -- -- 23
2017-09-21 14:00:00 28.2 4 Oeste 12 Sur 0 -- -- 26
2017-09-21 13:00:00 26.5 6 Sudoeste 15 Sur 0 -- -- 29
2017-09-21 12:00:00 24.3 6 Sur 12 Sur 0 -- -- 34
2017-09-21 11:00:00 21 6 Sur 13 Sur 0 -- -- 44
2017-09-21 10:00:00 17.1 3 Sur 10 Sudeste 0 -- -- 62
2017-09-21 09:00:00 15 3 Sudeste 13 Sudeste 0 -- -- 75
2017-09-21 08:00:00 14.7 3 Sudeste 10 Este 0 -- -- 74
2017-09-21 07:00:00 15.1 3 Sudeste 16 Sudeste 0 -- -- 72
2017-09-21 06:00:00 15.7 4 Sudeste 18 Este 0 -- -- 73
2017-09-21 05:00:00 16.4 4 Sudeste 20 Este 0 -- -- 70
2017-09-21 04:00:00 17.4 4 Sudeste 13 Este 0 -- -- 53
2017-09-21 03:00:00 17.6 2 Sur 7 Oeste 0 -- -- 38
2017-09-21 02:00:00 18.6 0 Calma 5 Este 0 -- -- 34
2017-09-21 01:00:00 19.3 2 Este 6 Sur 0 -- -- 33
2017-09-21 00:00:00 20.2 5 Sur 8 Sur 0 -- -- 30
2017-09-20 23:00:00 21.3 0 Calma 6 Oeste 0 -- -- 30
2017-09-20 22:00:00 22.7 2 Este 4 Este 0 -- -- 26
2017-09-20 21:00:00 24.3 0 Calma 8 Sur 0 -- -- 25
2017-09-20 20:00:00 26.8 3 Sudoeste 10 Oeste 0 -- -- 22
2017-09-20 19:00:00 28.2 7 Sur 15 Sur 0 -- -- 20
2017-09-20 18:00:00 29.2 4 Oeste 18 Sudoeste 0 -- -- 20
2017-09-20 17:00:00 29.6 7 Sudoeste 16 Sur 0 -- -- 20
2017-09-20 16:00:00 29.4 5 Oeste 17 Sur 0 -- -- 21
2017-09-20 15:00:00 28.6 6 Oeste 14 Oeste 0 -- -- 23
2017-09-20 14:00:00 27.6 5 Sur 15 Sur 0 -- -- 24
2017-09-20 13:00:00 26 4 Sur 9 Sudeste 0 -- -- 29
2017-09-20 12:00:00 22.6 3 Sur 10 Este 0 -- -- 39
2017-09-20 11:00:00 19.2 4 Sudeste 17 Sudeste 0 -- -- 53
2017-09-20 10:00:00 15.7 7 Sudeste 16 Sudeste 0 -- -- 61
2017-09-20 09:00:00 14 4 Sudeste 19 Este 0 -- -- 72
2017-09-20 08:00:00 14.2 7 Sudeste 16 Este 0 -- -- 79
2017-09-20 07:00:00 13.9 5 Este 16 Este 0 -- -- 73
2017-09-20 06:00:00 14.8 5 Sudeste 17 Sudeste 0 -- -- 57
2017-09-20 05:00:00 14.5 3 Este 11 Sur 0 -- -- 41
2017-09-20 04:00:00 14.4 0 Calma 9 Sudoeste 0 -- -- 42
2017-09-20 03:00:00 15.5 0 Calma 4 Norte 0 -- -- 42
2017-09-20 02:00:00 16.1 0 Calma 5 Nordeste 0 -- -- 42
2017-09-20 01:00:00 17.1 0 Calma 4 Sur 0 -- -- 39
2017-09-20 00:00:00 18.2 0 Calma 6 Sudoeste 0 -- -- 34
2017-09-19 23:00:00 19.5 0 Calma 2 Norte 0 -- -- 34
2017-09-19 22:00:00 20.6 0 Calma 0 Calma 0 -- -- 35
2017-09-19 21:00:00 22.3 0 Calma 8 Norte 0 -- -- 29
2017-09-19 20:00:00 24.2 3 Norte 17 Norte 0 -- -- 25
2017-09-19 19:00:00 25.4 6 Norte 18 Norte 0 -- -- 26
2017-09-19 18:00:00 26.4 5 Norte 17 Norte 0 -- -- 26
2017-09-19 17:00:00 27 6 Noroeste 29 Oeste 0 -- -- 26
2017-09-19 16:00:00 26 7 Norte 19 Noroeste 0 -- -- 29
2017-09-19 15:00:00 25.3 6 Noroeste 21 Noroeste 0 -- -- 30
2017-09-19 14:00:00 24.4 7 Norte 19 Norte 0 -- -- 31
2017-09-19 13:00:00 23 5 Noroeste 12 Oeste 0 -- -- 34
2017-09-19 12:00:00 20.5 5 Norte 10 Norte 0 -- -- 38
2017-09-19 11:00:00 18.6 3 Norte 7 Norte 0 -- -- 42
2017-09-19 10:00:00 15.2 2 Sudeste 8 Sur 0 -- -- 47
2017-09-19 09:00:00 12.2 4 Sur 10 Sur 0 -- -- 52
2017-09-19 08:00:00 11.6 3 Sudoeste 9 Sur 0 -- -- 54
2017-09-19 07:00:00 11.9 3 Sudoeste 8 Sur 0 -- -- 51
2017-09-19 06:00:00 13.3 0 Calma 6 Nordeste 0 -- -- 49
2017-09-19 05:00:00 14.1 2 Nordeste 6 Norte 0 -- -- 48
2017-09-19 04:00:00 14.5 0 Calma 6 Norte 0 -- -- 47
2017-09-19 03:00:00 15.6 3 Norte 5 Norte 0 -- -- 45
2017-09-19 02:00:00 16 0 Calma 7 Nordeste 0 -- -- 43
2017-09-19 01:00:00 16.5 4 Norte 14 Noroeste 0 -- -- 41
2017-09-19 00:00:00 17.8 4 Norte 14 Norte 0 -- -- 40
2017-09-18 23:00:00 18.5 6 Norte 14 Nordeste 0 -- -- 39
2017-09-18 22:00:00 20 5 Norte 15 Norte 0 -- -- 37
2017-09-18 21:00:00 21.9 9 Norte 20 Norte 0 -- -- 36
2017-09-18 20:00:00 23.3 7 Norte 25 Norte 0 -- -- 33
2017-09-18 19:00:00 24.2 11 Noroeste 28 Noroeste 0 -- -- 31
2017-09-18 18:00:00 25.6 7 Norte 34 Norte 0 -- -- 28
2017-09-18 17:00:00 25.9 11 Noroeste 26 Norte 0 -- -- 28
2017-09-18 16:00:00 26.1 8 Norte 25 Norte 0 -- -- 27
2017-09-18 15:00:00 25.5 7 Noroeste 21 Norte 0 -- -- 27
2017-09-18 14:00:00 24.5 6 Noroeste 23 Oeste 0 -- -- 26
2017-09-18 13:00:00 23.1 7 Oeste 19 Oeste 0 -- -- 27
2017-09-18 12:00:00 21.1 3 Noroeste 10 Oeste 0 -- -- 28
2017-09-18 11:00:00 19 4 Oeste 9 Noroeste 0 -- -- 29
2017-09-18 10:00:00 14 2 Sur 6 Sur 0 -- -- 35
2017-09-18 09:00:00 11.1 0 Calma 8 Sudoeste 0 -- -- 40
2017-09-18 08:00:00 11.1 2 Sudoeste 12 Sur 0 -- -- 40
2017-09-18 07:00:00 11.9 4 Sur 8 Sur 0 -- -- 38
2017-09-18 06:00:00 12.5 3 Sur 6 Sur 0 -- -- 37
2017-09-18 05:00:00 13.6 5 Sur 9 Sur 0 -- -- 33
2017-09-18 04:00:00 14.2 0 Calma 4 Sur 0 -- -- 32
2017-09-18 03:00:00 14.9 0 Calma 5 Sudoeste 0 -- -- 29
2017-09-18 02:00:00 15.7 2 Sudoeste 10 Sudoeste 0 -- -- 28
2017-09-18 01:00:00 16.9 0 Calma 5 Oeste 0 -- -- 26
2017-09-18 00:00:00 18.5 3 Norte 12 Norte 0 -- -- 23
2017-09-17 23:00:00 19.3 4 Norte 9 Oeste 0 -- -- 24
2017-09-17 22:00:00 20.7 4 Oeste 12 Oeste 0 -- -- 22
2017-09-17 21:00:00 22.5 5 Oeste 16 Oeste 0 -- -- 19
2017-09-17 20:00:00 24.6 7 Oeste 19 Sur 0 -- -- 19
2017-09-17 19:00:00 25.8 7 Sudoeste 20 Oeste 0 -- -- 18
2017-09-17 18:00:00 26.8 5 Sudoeste 22 Sudoeste 0 -- -- 18
2017-09-17 17:00:00 27.4 7 Sudoeste 21 Sudoeste 0 -- -- 18
2017-09-17 16:00:00 26.5 5 Sudoeste 27 Sudoeste 0 -- -- 20
2017-09-17 15:00:00 25.7 4 Oeste 18 Sur 0 -- -- 21
2017-09-17 14:00:00 24.1 5 Noroeste 15 Norte 0 -- -- 23
2017-09-17 13:00:00 23.6 5 Sudoeste 16 Oeste 0 -- -- 24
2017-09-17 12:00:00 20.9 6 Sur 14 Sudoeste 0 -- -- 27
2017-09-17 11:00:00 17.5 5 Sur 9 Sudeste 0 -- -- 33
2017-09-17 10:00:00 13.3 3 Sur 9 Este 0 -- -- 42
2017-09-17 09:00:00 10.1 4 Este 14 Este 0 -- -- 54
2017-09-17 08:00:00 9.8 3 Sur 8 Sudeste 0 -- -- 45
2017-09-17 07:00:00 9.4 0 Calma 5 Oeste 0 -- -- 46
2017-09-17 06:00:00 10.6 2 Oeste 6 Oeste 0 -- -- 42
2017-09-17 05:00:00 11.4 0 Calma 7 Nordeste 0 -- -- 42
2017-09-17 04:00:00 12.2 3 Norte 8 Norte 0 -- -- 37
2017-09-17 03:00:00 13.5 2 Nordeste 4 Nordeste 0 -- -- 37
2017-09-17 02:00:00 13.8 0 Calma 11 Sudoeste 0 -- -- 37
2017-09-17 01:00:00 15.9 2 Sudoeste 5 Oeste 0 -- -- 35
2017-09-17 00:00:00 17.2 0 Calma 6 Nordeste 0 -- -- 31
2017-09-16 23:00:00 17.6 3 Nordeste 7 Nordeste 0 -- -- 29
2017-09-16 22:00:00 18.5 3 Nordeste 6 Nordeste 0 -- -- 29
2017-09-16 21:00:00 19.7 4 Nordeste 16 Norte 0 -- -- 27
2017-09-16 20:00:00 20.7 5 Norte 13 Nordeste 0 -- -- 26
2017-09-16 19:00:00 21.7 6 Noroeste 20 Noroeste 0 -- -- 25
2017-09-16 18:00:00 22.7 7 Norte 24 Noroeste 0 -- -- 24
2017-09-16 17:00:00 23.3 6 Noroeste 21 Oeste 0 -- -- 24
2017-09-16 16:00:00 23.1 6 Norte 16 Noroeste 0 -- -- 25
2017-09-16 15:00:00 21.4 5 Nordeste 22 Nordeste 0 -- -- 27
2017-09-16 14:00:00 21 8 Nordeste 24 Norte 0 -- -- 27
2017-09-16 13:00:00 19.8 6 Nordeste 21 Este 0 -- -- 36
2017-09-16 12:00:00 18.1 8 Nordeste 16 Norte 0 -- -- 41
2017-09-16 11:00:00 16.1 8 Nordeste 17 Nordeste 0 -- -- 46
2017-09-16 10:00:00 14.8 7 Nordeste 14 Norte 0 -- -- 48
2017-09-16 09:00:00 12.1 4 Nordeste 12 Nordeste 0 -- -- 55
2017-09-16 08:00:00 11.7 5 Nordeste 17 Norte 0 -- -- 56
2017-09-16 07:00:00 11.7 5 Nordeste 16 Nordeste 0 -- -- 55
2017-09-16 06:00:00 12.3 5 Nordeste 14 Este 0 -- -- 55
2017-09-16 05:00:00 13.2 6 Nordeste 16 Nordeste 0 -- -- 53
2017-09-16 04:00:00 13.7 6 Nordeste 18 Nordeste 0 -- -- 54
2017-09-16 03:00:00 13.9 8 Nordeste 17 Este 0 -- -- 55
2017-09-16 02:00:00 14.6 6 Este 24 Sudeste 0 -- -- 52
2017-09-16 01:00:00 15.5 6 Sudeste 21 Este 0 -- -- 56
2017-09-16 00:00:00 16.8 8 Sudeste 24 Sudeste 0 -- -- 58
2017-09-15 23:00:00 17.7 5 Este 18 Nordeste 0 -- -- 37
2017-09-15 22:00:00 18.8 6 Nordeste 21 Nordeste 0 -- -- 36
2017-09-15 21:00:00 19.9 12 Nordeste 22 Nordeste 0 -- -- 36
2017-09-15 20:00:00 21.4 11 Nordeste 28 Norte 0 -- -- 34
2017-09-15 19:00:00 22.7 13 Norte 32 Noroeste 0 -- -- 32
2017-09-15 18:00:00 24.3 10 Norte 28 Norte 0 -- -- 31
2017-09-15 17:00:00 25.2 9 Norte 26 Oeste 0 -- -- 30
2017-09-15 16:00:00 25.1 10 Noroeste 26 Oeste 0 -- -- 32
2017-09-15 15:00:00 24.2 8 Noroeste 24 Noroeste 0 -- -- 36
2017-09-15 14:00:00 23.3 8 Noroeste 24 Noroeste 0 -- -- 39
2017-09-15 13:00:00 22.3 8 Noroeste 26 Oeste 0 -- -- 40
2017-09-15 12:00:00 20.6 8 Noroeste 23 Noroeste 0 -- -- 44
2017-09-15 11:00:00 19.3 7 Noroeste 24 Noroeste 0 -- -- 48
2017-09-15 10:00:00 16.8 5 Noroeste 16 Oeste 0 -- -- 54
2017-09-15 09:00:00 16.1 6 Oeste 13 Oeste 0 -- -- 52
2017-09-15 08:00:00 16.1 6 Sur 10 Sur 0 -- -- 49
2017-09-15 07:00:00 16.5 6 Sur 12 Sur 0 -- -- 46
2017-09-15 06:00:00 17 4 Sur 8 Sur 0 -- -- 44
2017-09-15 05:00:00 17.4 2 Sur 10 Sur 0 -- -- 42
2017-09-15 04:00:00 17.9 5 Sur 9 Sudoeste 0 -- -- 41
2017-09-15 03:00:00 18.7 4 Sudoeste 10 Sudoeste 0 -- -- 39
2017-09-15 02:00:00 19.6 4 Sudoeste 9 Sudoeste 0 -- -- 37
2017-09-15 01:00:00 20.6 2 Sudoeste 8 Sur 0 -- -- 34
2017-09-15 00:00:00 22 0 Calma 4 Sudoeste 0 -- -- 30
2017-09-14 23:00:00 23.4 2 Sur 6 Oeste 0 -- -- 27
2017-09-14 22:00:00 24.7 2 Oeste 14 Sudoeste 0 -- -- 24
2017-09-14 21:00:00 26.6 7 Sudoeste 19 Sudoeste 0 -- -- 22
2017-09-14 20:00:00 29 8 Oeste 19 Oeste 0 -- -- 19
2017-09-14 19:00:00 30.5 5 Noroeste 29 Oeste 0 -- -- 19
2017-09-14 18:00:00 32.4 7 Oeste 23 Oeste 0 -- -- 17
2017-09-14 17:00:00 32.4 8 Noroeste 27 Sudoeste 0 -- -- 18
2017-09-14 16:00:00 32.7 8 Oeste 30 Oeste 0 -- -- 17
2017-09-14 15:00:00 32.1 10 Sudoeste 29 Oeste 0 -- -- 19
2017-09-14 14:00:00 30.3 5 Oeste 18 Oeste 0 -- -- 25
2017-09-14 13:00:00 29.5 4 Sudoeste 14 Sudoeste 0 -- -- 26
2017-09-14 12:00:00 27.6 3 Sur 11 Sudoeste 0 -- -- 30
2017-09-14 11:00:00 24.7 3 Sudoeste 9 Sudoeste 0 -- -- 34
2017-09-14 10:00:00 20 4 Sudoeste 9 Sudoeste 0 -- -- 37
2017-09-14 09:00:00 16.7 4 Sur 6 Sur 0 -- -- 41
2017-09-14 08:00:00 16.7 0 Calma 4 Sur 0 -- -- 40
2017-09-14 07:00:00 16.6 0 Calma 17 Norte 0 -- -- 39
2017-09-14 06:00:00 17.4 3 Sur 12 Sur 0 -- -- 38
2017-09-14 05:00:00 18.7 0 Calma 10 Sur 0 -- -- 34
2017-09-14 04:00:00 19.1 0 Calma 6 Sur 0 -- -- 35
2017-09-14 03:00:00 20 2 Sudoeste 8 Sudoeste 0 -- -- 31
2017-09-14 02:00:00 20.8 2 Sur 10 Sur 0 -- -- 29
2017-09-14 01:00:00 21.9 7 Sur 15 Sur 0 -- -- 26
2017-09-14 00:00:00 22.9 2 Noroeste 10 Noroeste 0 -- -- 27
2017-09-13 23:00:00 24.7 5 Noroeste 12 Norte 0 -- -- 22
2017-09-13 22:00:00 26.2 3 Oeste 10 Sudoeste 0 -- -- 21
2017-09-13 21:00:00 28 4 Oeste 9 Sudoeste 0 -- -- 20
2017-09-13 20:00:00 30.4 3 Sudoeste 19 Oeste 0 -- -- 20
2017-09-13 19:00:00 31.7 5 Sudoeste 22 Sudoeste 0 -- -- 18
2017-09-13 18:00:00 33 9 Sudoeste 22 Sudoeste 0 -- -- 17
2017-09-13 17:00:00 33.2 7 Sudoeste 18 Sudoeste 0 -- -- 17
2017-09-13 16:00:00 32.8 6 Sudoeste 18 Sur 0 -- -- 19
2017-09-13 15:00:00 31.8 9 Sur 17 Sudoeste 0 -- -- 23
2017-09-13 14:00:00 30 5 Sudeste 15 Sur 0 -- -- 27
2017-09-13 13:00:00 28.1 5 Sudeste 18 Sudeste 0 -- -- 37
2017-09-13 12:00:00 25.4 9 Sudeste 18 Sudeste 0 -- -- 44
2017-09-13 11:00:00 21.9 6 Sudeste 23 Sudeste 0 -- -- 55
2017-09-13 10:00:00 18.6 6 Sudeste 27 Este 0 -- -- 67
2017-09-13 09:00:00 16.4 7 Sudeste 23 Este 0 -- -- 76
2017-09-13 08:00:00 15.9 6 Sudeste 18 Este 0 -- -- 74
2017-09-13 07:00:00 16.1 6 Sudeste 23 Este 0 -- -- 73
2017-09-13 06:00:00 16.4 6 Sudeste 19 Este 0 -- -- 67
2017-09-13 05:00:00 17.1 6 Sudeste 19 Este 0 -- -- 65
2017-09-13 04:00:00 17.7 5 Sudeste 15 Este 0 -- -- 51
2017-09-13 03:00:00 18.8 4 Sudoeste 16 Oeste 0 -- -- 37
2017-09-13 02:00:00 19.5 0 Calma 9 Sur 0 -- -- 36
2017-09-13 01:00:00 20.2 3 Este 9 Sudeste 0 -- -- 36
2017-09-13 00:00:00 21.7 0 Calma 8 Nordeste 0 -- -- 33
2017-09-12 23:00:00 22.9 3 Este 9 Nordeste 0 -- -- 32
2017-09-12 22:00:00 23.7 3 Nordeste 10 Nordeste 0 -- -- 30
2017-09-12 21:00:00 25.2 5 Norte 16 Norte 0 -- -- 28
2017-09-12 20:00:00 26.4 8 Norte 19 Norte 0 -- -- 26
2017-09-12 19:00:00 27.2 9 Norte 22 Norte 0 -- -- 25
2017-09-12 18:00:00 28.5 8 Noroeste 23 Noroeste 0 -- -- 25
2017-09-12 17:00:00 29.1 8 Noroeste 24 Noroeste 0 -- -- 26
2017-09-12 16:00:00 28.2 9 Noroeste 23 Noroeste 0 -- -- 27
2017-09-12 15:00:00 27.5 7 Noroeste 22 Noroeste 0 -- -- 27
2017-09-12 14:00:00 26.3 6 Norte 19 Norte 0 -- -- 32
2017-09-12 13:00:00 25 8 Norte 24 Norte 0 -- -- 35
2017-09-12 12:00:00 23.7 8 Norte 21 Norte 0 -- -- 39
2017-09-12 11:00:00 22 9 Norte 19 Norte 0 -- -- 43
2017-09-12 10:00:00 19.6 4 Noroeste 16 Noroeste 0 -- -- 49
2017-09-12 09:00:00 16.5 5 Norte 12 Norte 0 -- -- 54
2017-09-12 08:00:00 15.7 0 Calma 9 Noroeste 0 -- -- 56
2017-09-12 07:00:00 16.4 2 Norte 8 Norte 0 -- -- 54
2017-09-12 06:00:00 17.3 3 Noroeste 9 Noroeste 0 -- -- 52
2017-09-12 05:00:00 18.7 4 Noroeste 11 Noroeste 0 -- -- 49
2017-09-12 04:00:00 20 4 Noroeste 12 Noroeste 0 -- -- 46
2017-09-12 03:00:00 20.9 5 Noroeste 10 Norte 0 -- -- 43
2017-09-12 02:00:00 21.4 4 Norte 11 Noroeste 0 -- -- 40
2017-09-12 01:00:00 22 4 Norte 15 Noroeste 0 -- -- 38
2017-09-12 00:00:00 23.3 6 Norte 14 Norte 0 -- -- 34
2017-09-11 23:00:00 23.9 3 Noroeste 12 Noroeste 0 -- -- 32
2017-09-11 22:00:00 25.6 3 Noroeste 16 Noroeste 0 -- -- 27
2017-09-11 21:00:00 27.7 6 Noroeste 22 Noroeste 0 -- -- 23
2017-09-11 20:00:00 29.8 8 Noroeste 26 Noroeste 0 -- -- 20
2017-09-11 19:00:00 31.2 6 Noroeste 26 Noroeste 0 -- -- 19
2017-09-11 18:00:00 32.5 9 Noroeste 24 Oeste 0 -- -- 19
2017-09-11 17:00:00 32.3 8 Noroeste 26 Norte 0 -- -- 20
2017-09-11 16:00:00 31.6 8 Noroeste 27 Noroeste 0 -- -- 20
2017-09-11 15:00:00 30.9 8 Oeste 22 Oeste 0 -- -- 23
2017-09-11 14:00:00 29.9 6 Sudoeste 18 Oeste 0 -- -- 24
2017-09-11 13:00:00 28 6 Oeste 13 Sudoeste 0 -- -- 26
2017-09-11 12:00:00 26.1 6 Sudoeste 12 Sur 0 -- -- 27
2017-09-11 11:00:00 22.2 4 Sudoeste 12 Sur 0 -- -- 31
2017-09-11 10:00:00 17.7 4 Sur 6 Sur 0 -- -- 36
2017-09-11 09:00:00 14.1 4 Sur 9 Sur 0 -- -- 43
2017-09-11 08:00:00 13.6 5 Sur 11 Sur 0 -- -- 43
2017-09-11 07:00:00 14.2 0 Calma 6 Sur 0 -- -- 43
2017-09-11 06:00:00 14.5 0 Calma 6 Sur 0 -- -- 41
2017-09-11 05:00:00 15.1 3 Sur 9 Sur 0 -- -- 39
2017-09-11 04:00:00 15.9 0 Calma 8 Sur 0 -- -- 36
2017-09-11 03:00:00 16.6 3 Sudoeste 9 Sur 0 -- -- 35
2017-09-11 02:00:00 17.4 3 Sur 10 Sudoeste 0 -- -- 34
2017-09-11 01:00:00 18 0 Calma 10 Norte 0 -- -- 33
2017-09-11 00:00:00 19.2 4 Noroeste 9 Noroeste 0 -- -- 31
2017-09-10 23:00:00 19.9 2 Noroeste 10 Sudoeste 0 -- -- 30
2017-09-10 22:00:00 20.9 3 Norte 11 Norte 0 -- -- 28
2017-09-10 21:00:00 21.7 5 Norte 18 Norte 0 -- -- 26
2017-09-10 20:00:00 22.9 7 Noroeste 23 Noroeste 0 -- -- 26
2017-09-10 19:00:00 23.2 8 Norte 26 Oeste 0 -- -- 25
2017-09-10 18:00:00 24 7 Norte 29 Noroeste 0 -- -- 24
2017-09-10 17:00:00 23.7 12 Norte 31 Norte 0 -- -- 25
2017-09-10 16:00:00 23.6 6 Norte 24 Noroeste 0 -- -- 27
2017-09-10 15:00:00 22.3 9 Noroeste 23 Norte 0 -- -- 30
2017-09-10 14:00:00 20.9 8 Noroeste 22 Norte 0 -- -- 32
2017-09-10 13:00:00 19.7 8 Noroeste 21 Oeste 0 -- -- 36
2017-09-10 12:00:00 18.5 7 Noroeste 21 Norte 0 -- -- 40
2017-09-10 11:00:00 16.8 8 Norte 22 Nordeste 0 -- -- 44
2017-09-10 10:00:00 14.4 7 Norte 16 Norte 0 -- -- 51
2017-09-10 09:00:00 11.8 3 Noroeste 13 Norte 0 -- -- 56
2017-09-10 08:00:00 11.4 2 Norte 6 Noroeste 0 -- -- 58
2017-09-10 07:00:00 12.7 3 Noroeste 15 Norte 0 -- -- 56
2017-09-10 06:00:00 12.9 5 Norte 15 Norte 0 -- -- 57
2017-09-10 05:00:00 13.7 3 Norte 9 Noroeste 0 -- -- 50
2017-09-10 04:00:00 14.7 5 Norte 15 Norte 0 -- -- 41
2017-09-10 03:00:00 15.2 5 Norte 12 Norte 0 -- -- 37
2017-09-10 02:00:00 16.6 5 Noroeste 17 Noroeste 0 -- -- 34
2017-09-10 01:00:00 17.3 3 Noroeste 17 Norte 0 -- -- 33
2017-09-10 00:00:00 18.7 5 Noroeste 24 Norte 0 -- -- 30
2017-09-09 23:00:00 19.7 10 Norte 35 Norte 0 -- -- 30
2017-09-09 22:00:00 20.5 8 Norte 25 Norte 0 -- -- 27
2017-09-09 21:00:00 21.9 10 Norte 34 Norte 0 -- -- 27
2017-09-09 20:00:00 23.1 12 Norte 23 Norte 0 -- -- 29
2017-09-09 19:00:00 23.9 8 Noroeste 23 Norte 0 -- -- 34
2017-09-09 18:00:00 23.8 10 Norte 29 Norte 0 -- -- 35
2017-09-09 17:00:00 25.1 10 Norte 29 Nordeste 0 -- -- 35
2017-09-09 16:00:00 25 10 Norte 30 Noroeste 0 -- -- 35
2017-09-09 15:00:00 24.8 10 Norte 31 Noroeste 0 -- -- 34
2017-09-09 14:00:00 23.2 10 Noroeste 28 Noroeste 0 -- -- 38
2017-09-09 13:00:00 23 8 Noroeste 26 Norte 0 -- -- 35
2017-09-09 12:00:00 22.5 7 Noroeste 20 Noroeste 0 -- -- 34
2017-09-09 11:00:00 20.7 5 Oeste 10 Sudoeste 0 -- -- 33
2017-09-09 10:00:00 18.3 5 Sudoeste 12 Oeste 0 -- -- 36
2017-09-09 09:00:00 16.3 4 Sudoeste 12 Sudoeste 0 -- -- 38
2017-09-09 08:00:00 15.5 2 Oeste 11 Sur 0 -- -- 36
2017-09-09 07:00:00 16.1 3 Oeste 13 Sur 0 -- -- 33
2017-09-09 06:00:00 16.5 6 Sur 13 Sur 0 -- -- 31
2017-09-09 05:00:00 17 3 Sudoeste 10 Sur 0 -- -- 30
2017-09-09 04:00:00 17.8 6 Sur 12 Sur 0 -- -- 29
2017-09-09 03:00:00 18.9 0 Calma 9 Sudoeste 0 -- -- 26
2017-09-09 02:00:00 20 4 Sur 8 Sur 0 -- -- 22
2017-09-09 01:00:00 21.2 0 Calma 8 Sur 0 -- -- 20
2017-09-09 00:00:00 22.8 2 Sudoeste 6 Noroeste 0 -- -- 17
2017-09-08 23:00:00 24.4 2 Noroeste 10 Sudoeste 0 -- -- 16
2017-09-08 22:00:00 26.2 4 Noroeste 10 Noroeste 0 -- -- 16
2017-09-08 21:00:00 28.5 4 Noroeste 15 Oeste 0 -- -- 14
2017-09-08 20:00:00 31.2 6 Oeste 18 Oeste 0 -- -- 14
2017-09-08 19:00:00 32.6 10 Noroeste 30 Oeste 0 -- -- 13
2017-09-08 18:00:00 33.5 8 Oeste 25 Sudoeste 0 -- -- 16
2017-09-08 17:00:00 33.5 9 Sudoeste 21 Sur 0 -- -- 16
2017-09-08 16:00:00 32.7 6 Sudoeste 19 Sur 0 -- -- 18
2017-09-08 15:00:00 31.8 6 Oeste 19 Sur 0 -- -- 20
2017-09-08 14:00:00 30.3 4 Sudoeste 15 Sudoeste 0 -- -- 25
2017-09-08 13:00:00 27.7 5 Nordeste 13 Sur 0 -- -- 40
2017-09-08 12:00:00 25.5 4 Este 14 Sur 0 -- -- 52
2017-09-08 11:00:00 22.9 4 Sudeste 14 Sudeste 0 -- -- 69
2017-09-08 10:00:00 19.9 4 Este 14 Sudeste 0 -- -- 82
2017-09-08 09:00:00 18.1 6 Este 14 Este 0 -- -- 92
2017-09-08 08:00:00 17.5 5 Este 14 Este 0 -- -- 91
2017-09-08 07:00:00 18.1 6 Este 20 Este 0 -- -- 87
2017-09-08 06:00:00 16.8 2 Norte 5 Nordeste 0 -- -- 52
2017-09-08 05:00:00 16.8 3 Noroeste 6 Noroeste 0 -- -- 37
2017-09-08 04:00:00 17.6 0 Calma 4 Noroeste 0 -- -- 33
2017-09-08 03:00:00 18.5 0 Calma 7 Noroeste 0 -- -- 29
2017-09-08 02:00:00 19.6 0 Calma 7 Nordeste 0 -- -- 28
2017-09-08 01:00:00 20.9 4 Nordeste 14 Noroeste 0 -- -- 24
2017-09-08 00:00:00 22.1 0 Calma 10 Nordeste 0 -- -- 24
2017-09-07 23:00:00 23.5 4 Norte 9 Nordeste 0 -- -- 23
2017-09-07 22:00:00 25.9 5 Norte 14 Norte 0 -- -- 18
2017-09-07 21:00:00 27.3 4 Norte 12 Noroeste 0 -- -- 19
2017-09-07 20:00:00 29.1 5 Noroeste 18 Norte 0 -- -- 19
2017-09-07 19:00:00 30.1 6 Noroeste 20 Noroeste 0 -- -- 19
2017-09-07 18:00:00 31.1 6 Norte 23 Norte 0 -- -- 25
2017-09-07 17:00:00 30.6 5 Nordeste 23 Nordeste 0 -- -- 35
2017-09-07 16:00:00 30 7 Norte 23 Norte 0 -- -- 38
2017-09-07 15:00:00 29.6 5 Norte 19 Nordeste 0 -- -- 42
2017-09-07 14:00:00 28.3 6 Norte 23 Nordeste 0 -- -- 47
2017-09-07 13:00:00 27.1 9 Norte 21 Nordeste 0 -- -- 51
2017-09-07 12:00:00 25.2 7 Nordeste 18 Nordeste 0 -- -- 59
2017-09-07 11:00:00 23.5 8 Este 17 Este 0 -- -- 66
2017-09-07 10:00:00 21.5 7 Este 19 Este 0 -- -- 75
2017-09-07 09:00:00 20.1 7 Nordeste 17 Nordeste 0 -- -- 82
2017-09-07 08:00:00 19.5 6 Nordeste 16 Nordeste 0 -- -- 84
2017-09-07 07:00:00 19.7 7 Nordeste 19 Este 0 -- -- 82
2017-09-07 06:00:00 20.1 5 Nordeste 15 Nordeste 0 -- -- 80
2017-09-07 05:00:00 20.6 6 Nordeste 21 Este 0 -- -- 78
2017-09-07 04:00:00 20.9 7 Sudeste 23 Sudeste 0 -- -- 76
2017-09-07 03:00:00 21.5 8 Este 27 Este 0 -- -- 72
2017-09-07 02:00:00 23.1 8 Sudeste 24 Este 0 -- -- 63
2017-09-07 01:00:00 23.8 6 Sudeste 21 Sudeste 0 -- -- 59
2017-09-07 00:00:00 24.1 8 Sudeste 26 Este 0 -- -- 56
2017-09-06 23:00:00 25 10 Sudeste 30 Este 0 -- -- 49
2017-09-06 22:00:00 26.5 10 Sudeste 27 Sudeste 0 -- -- 45
2017-09-06 21:00:00 28.5 14 Este 33 Este 0 -- -- 42
2017-09-06 20:00:00 32.3 3 Oeste 13 Norte 0 -- -- 27
2017-09-06 19:00:00 33.7 4 Oeste 14 Noroeste 0 -- -- 25
2017-09-06 18:00:00 35.1 4 Oeste 13 Noroeste 0 -- -- 22
2017-09-06 17:00:00 34.8 4 Sudoeste 16 Nordeste 0 -- -- 23
2017-09-06 16:00:00 34.3 6 Nordeste 14 Norte 0 -- -- 24
2017-09-06 15:00:00 33.4 6 Norte 12 Sur 0 -- -- 26
2017-09-06 14:00:00 32.4 3 Norte 11 Sudeste 0 -- -- 29
2017-09-06 13:00:00 31 4 Sur 13 Sur 0 -- -- 33
2017-09-06 12:00:00 28.4 5 Sur 12 Sudoeste 0 -- -- 40
2017-09-06 11:00:00 25.8 4 Sudeste 11 Sur 0 -- -- 49
2017-09-06 10:00:00 22.2 5 Sudeste 14 Sudeste 0 -- -- 64
2017-09-06 09:00:00 19.7 6 Sudeste 19 Sudeste 0 -- -- 77
2017-09-06 08:00:00 19.3 6 Sudeste 18 Este 0 -- -- 76
2017-09-06 07:00:00 19.9 4 Sudeste 18 Este 0 -- -- 70
2017-09-06 06:00:00 20.4 5 Sudeste 16 Este 0 -- -- 64
2017-09-06 05:00:00 21.2 2 Este 5 Este 0 -- -- 50
2017-09-06 04:00:00 21.7 0 Calma 3 Nordeste 0 -- -- 47
2017-09-06 03:00:00 22.2 0 Calma 13 Sur 0 -- -- 45
2017-09-06 02:00:00 23.3 2 Sudeste 5 Sudeste 0 -- -- 42
2017-09-06 01:00:00 24.1 0 Calma 5 Noroeste 0 -- -- 40
2017-09-06 00:00:00 25.6 0 Calma 5 Norte 0 -- -- 39
2017-09-05 23:00:00 26.4 0 Calma 3 Nordeste 0 -- -- 36
2017-09-05 22:00:00 27.9 0 Calma 7 Nordeste 0 -- -- 34
2017-09-05 21:00:00 29.8 3 Norte 14 Nordeste 0 -- -- 29
2017-09-05 20:00:00 31.2 6 Norte 17 Norte 0 -- -- 28
2017-09-05 19:00:00 32.3 4 Noroeste 19 Noroeste 0 -- -- 27
2017-09-05 18:00:00 33.3 6 Noroeste 15 Noroeste 0 -- -- 25
2017-09-05 17:00:00 33.2 4 Oeste 16 Oeste 0 -- -- 26
2017-09-05 16:00:00 32.4 5 Norte 19 Sudoeste 0 -- -- 27
2017-09-05 15:00:00 31.5 4 Nordeste 13 Noroeste 0 -- -- 31
2017-09-05 14:00:00 30.7 5 Sudoeste 13 Oeste 0 -- -- 34
2017-09-05 13:00:00 28.9 4 Este 12 Sudeste 0 -- -- 43
2017-09-05 12:00:00 26.6 5 Este 20 Sudeste 0 -- -- 53
2017-09-05 11:00:00 23.8 8 Sudeste 22 Sudeste 0 -- -- 65
2017-09-05 10:00:00 21.2 8 Sudeste 24 Sudeste 0 -- -- 77
2017-09-05 09:00:00 18.9 7 Sudeste 23 Este 0 -- -- 86
2017-09-05 08:00:00 18.5 8 Sudeste 23 Este 0 -- -- 87
2017-09-05 07:00:00 18.9 7 Sudeste 23 Sudeste 0 -- -- 85
2017-09-05 06:00:00 19.2 7 Sudeste 22 Este 0 -- -- 83
2017-09-05 05:00:00 19.6 7 Sudeste 25 Este 0 -- -- 82
2017-09-05 04:00:00 20.1 7 Sudeste 21 Este 0 -- -- 80
2017-09-05 03:00:00 20.7 8 Sudeste 23 Este 0 -- -- 77
2017-09-05 02:00:00 21.5 8 Sudeste 26 Este 0 -- -- 71
2017-09-05 01:00:00 22.4 6 Este 22 Este 0 -- -- 57
2017-09-05 00:00:00 23.2 0 Calma 4 Sur 0 -- -- 41
2017-09-04 23:00:00 24.4 0 Calma 2 Sur 0 -- -- 39
2017-09-04 22:00:00 25.8 0 Calma 3 Norte 0 -- -- 35
2017-09-04 21:00:00 27.4 0 Calma 11 Noroeste 0 -- -- 31
2017-09-04 20:00:00 28.6 6 Norte 15 Nordeste 0 -- -- 27
2017-09-04 19:00:00 29.4 7 Norte 17 Norte 0 -- -- 26
2017-09-04 18:00:00 30.2 8 Norte 17 Nordeste 0 -- -- 24
2017-09-04 17:00:00 30.3 7 Norte 21 Norte 0 -- -- 25
2017-09-04 16:00:00 29.7 7 Norte 19 Nordeste 0 -- -- 27
2017-09-04 15:00:00 29.4 8 Noroeste 19 Norte 0 -- -- 28
2017-09-04 14:00:00 28.4 5 Norte 18 Norte 0 -- -- 31
2017-09-04 13:00:00 27.5 8 Norte 17 Norte 0 -- -- 33
2017-09-04 12:00:00 25.7 4 Norte 19 Nordeste 0 -- -- 37
2017-09-04 11:00:00 23.5 5 Norte 13 Noroeste 0 -- -- 40
2017-09-04 10:00:00 19.5 3 Noroeste 8 Noroeste 0 -- -- 38
2017-09-04 09:00:00 16.7 0 Calma 3 Oeste 0 -- -- 43
2017-09-04 08:00:00 16.1 3 Norte 6 Norte 0 -- -- 43
2017-09-04 07:00:00 16.9 3 Sudoeste 5 Sur 0 -- -- 40
2017-09-04 06:00:00 17.8 0 Calma 4 Sur 0 -- -- 39
2017-09-04 05:00:00 18.4 3 Sur 6 Sur 0 -- -- 38
2017-09-04 04:00:00 18.8 4 Sur 10 Sur 0 -- -- 37
2017-09-04 03:00:00 20.3 4 Sur 9 Sur 0 -- -- 34
2017-09-04 02:00:00 21.7 3 Sur 6 Sur 0 -- -- 30
2017-09-04 01:00:00 22.9 0 Calma 5 Sudoeste 0 -- -- 30
2017-09-04 00:00:00 24.6 0 Calma 8 Noroeste 0 -- -- 26
2017-09-03 23:00:00 26 2 Noroeste 13 Sudoeste 0 -- -- 24
2017-09-03 22:00:00 26.9 3 Noroeste 10 Oeste 0 -- -- 23
2017-09-03 21:00:00 28.6 3 Oeste 12 Noroeste 0 -- -- 23
2017-09-03 20:00:00 30.6 5 Norte 14 Norte 0 -- -- 19
2017-09-03 19:00:00 31.8 8 Norte 22 Noroeste 0 -- -- 18
2017-09-03 18:00:00 32.5 9 Norte 20 Oeste 0 -- -- 18
2017-09-03 17:00:00 32.8 6 Noroeste 19 Oeste 0 -- -- 18
2017-09-03 16:00:00 32.9 6 Oeste 16 Oeste 0 -- -- 19
2017-09-03 15:00:00 31.5 5 Noroeste 18 Oeste 0 -- -- 21
2017-09-03 14:00:00 30.3 5 Oeste 17 Sur 0 -- -- 23
2017-09-03 13:00:00 28.5 5 Oeste 12 Sur 0 -- -- 27
2017-09-03 12:00:00 25.6 6 Sudoeste 12 Oeste 0 -- -- 26
2017-09-03 11:00:00 21.7 6 Sur 13 Sur 0 -- -- 35
2017-09-03 10:00:00 18.1 4 Sur 13 Sudeste 0 -- -- 44
2017-09-03 09:00:00 16.5 4 Sudeste 15 Sudeste 0 -- -- 48
2017-09-03 08:00:00 16.9 4 Sudeste 10 Este 0 -- -- 43
2017-09-03 07:00:00 16.5 0 Calma 5 Sudoeste 0 -- -- 36
2017-09-03 06:00:00 17.6 0 Calma 7 Este 0 -- -- 34
2017-09-03 05:00:00 17.8 3 Este 5 Este 0 -- -- 33
2017-09-03 04:00:00 17.3 0 Calma 5 Oeste 0 -- -- 37
2017-09-03 03:00:00 17.6 4 Sur 13 Sur 0 -- -- 35
2017-09-03 02:00:00 19.8 0 Calma 6 Norte 0 -- -- 28
2017-09-03 01:00:00 21.5 3 Oeste 10 Nordeste 0 -- -- 26
2017-09-03 00:00:00 21.5 0 Calma 2 Norte 0 -- -- 28
2017-09-02 23:00:00 22.8 2 Nordeste 5 Nordeste 0 -- -- 25
2017-09-02 22:00:00 24 0 Calma 5 Nordeste 0 -- -- 24
2017-09-02 21:00:00 25.9 3 Norte 12 Nordeste 0 -- -- 21
2017-09-02 20:00:00 27.4 6 Norte 14 Noroeste 0 -- -- 19
2017-09-02 19:00:00 28.6 6 Noroeste 18 Noroeste 0 -- -- 17
2017-09-02 18:00:00 29.7 5 Norte 19 Norte 0 -- -- 18
2017-09-02 17:00:00 29.5 6 Noroeste 19 Este 0 -- -- 19
2017-09-02 16:00:00 28.6 8 Noroeste 20 Norte 0 -- -- 21
2017-09-02 15:00:00 27.4 6 Nordeste 16 Norte 0 -- -- 26
2017-09-02 14:00:00 25.7 5 Norte 16 Norte 0 -- -- 32
2017-09-02 13:00:00 24.4 4 Nordeste 17 Nordeste 0 -- -- 36
2017-09-02 12:00:00 22.9 7 Nordeste 17 Nordeste 0 -- -- 36
2017-09-02 11:00:00 21.2 7 Nordeste 19 Nordeste 0 -- -- 39
2017-09-02 10:00:00 19.3 9 Nordeste 21 Nordeste 0 -- -- 46
2017-09-02 09:00:00 17.5 9 Nordeste 19 Nordeste 0 -- -- 52
2017-09-02 08:00:00 17.9 7 Nordeste 15 Nordeste 0 -- -- 51
2017-09-02 07:00:00 18.6 6 Nordeste 19 Norte 0 -- -- 50
2017-09-02 06:00:00 18.5 9 Nordeste 22 Nordeste 0 -- -- 52
2017-09-02 05:00:00 19 9 Nordeste 24 Nordeste 0 -- -- 55
2017-09-02 04:00:00 20.3 9 Nordeste 26 Nordeste 0 -- -- 73
2017-09-02 03:00:00 20.6 7 Nordeste 19 Este 0 -- -- 70
2017-09-02 02:00:00 20.8 8 Nordeste 19 Este 0 -- -- 69
2017-09-02 01:00:00 21.8 8 Este 20 Sudeste 0 -- -- 65
2017-09-02 00:00:00 22.8 7 Nordeste 20 Nordeste 0 -- -- 36
2017-09-01 23:00:00 24 6 Norte 14 Norte 0 -- -- 38
2017-09-01 22:00:00 25.5 7 Norte 19 Norte 0 -- -- 38
2017-09-01 21:00:00 27.1 9 Norte 22 Norte 0 -- -- 36
2017-09-01 20:00:00 28.5 10 Norte 18 Noroeste 0 -- -- 34
2017-09-01 19:00:00 29.9 9 Norte 19 Nordeste 0 -- -- 32
2017-09-01 18:00:00 31 6 Noroeste 19 Noroeste 0 -- -- 31
2017-09-01 17:00:00 30 6 Noroeste 16 Nordeste 0 -- -- 33
2017-09-01 16:00:00 29.7 5 Noroeste 18 Norte 0 -- -- 34
2017-09-01 15:00:00 28.9 6 Norte 17 Este 0 -- -- 37
2017-09-01 14:00:00 27.9 5 Norte 14 Norte 0 -- -- 43
2017-09-01 13:00:00 27.5 5 Este 17 Nordeste 0 -- -- 47
2017-09-01 12:00:00 25.8 5 Sur 16 Este 0 -- -- 54
2017-09-01 11:00:00 23.6 7 Sudeste 24 Sudeste 0 -- -- 65
2017-09-01 10:00:00 20.8 8 Sudeste 22 Este 0 -- -- 76
2017-09-01 09:00:00 19.1 5 Sudeste 21 Nordeste 0 -- -- 83
2017-09-01 08:00:00 18.6 6 Sudeste 22 Este 0 -- -- 84
2017-09-01 07:00:00 19 7 Sudeste 19 Este 0 -- -- 83
2017-09-01 06:00:00 19.3 6 Sudeste 17 Este 0 -- -- 81
2017-09-01 05:00:00 19.6 7 Este 24 Este 0 -- -- 81
2017-09-01 04:00:00 20.1 7 Este 23 Este 0 -- -- 80
2017-09-01 03:00:00 20.6 5 Sudeste 20 Sudeste 0 -- -- 66
2017-09-01 02:00:00 21.6 0 Calma 10 Sur 0 -- -- 44
2017-09-01 01:00:00 22.4 0 Calma 5 Norte 0 -- -- 41
2017-09-01 00:00:00 23.5 0 Calma 5 Este 0 -- -- 38
2017-08-31 23:00:00 24.4 0 Calma 5 Nordeste 0 -- -- 37
2017-08-31 22:00:00 25.8 0 Calma 6 Nordeste 0 -- -- 34
2017-08-31 21:00:00 27.1 4 Nordeste 11 Nordeste 0 -- -- 31
2017-08-31 20:00:00 28.1 5 Norte 22 Sur 0 -- -- 29
2017-08-31 19:00:00 29 6 Nordeste 17 Nordeste 0 -- -- 29
2017-08-31 18:00:00 30.1 4 Norte 13 Norte 0 -- -- 28
2017-08-31 17:00:00 29.8 5 Nordeste 15 Este 0 -- -- 28
2017-08-31 16:00:00 29.4 6 Sur 15 Oeste 0 -- -- 29
2017-08-31 15:00:00 28.2 8 Noroeste 16 Sudoeste 0 -- -- 32
2017-08-31 14:00:00 28.6 6 Sudoeste 13 Nordeste 0 -- -- 33
2017-08-31 13:00:00 27.7 3 Sudoeste 10 Sur 0 -- -- 35
2017-08-31 12:00:00 25.3 4 Norte 10 Noroeste 0 -- -- 43
2017-08-31 11:00:00 23.6 2 Noroeste 8 Oeste 0 -- -- 51
2017-08-31 10:00:00 20.5 2 Noroeste 7 Norte 0 -- -- 59
2017-08-31 09:00:00 17.8 4 Noroeste 8 Noroeste 0 -- -- 67
2017-08-31 08:00:00 16.5 2 Sur 10 Sudoeste 0 -- -- 72
2017-08-31 07:00:00 17.7 0 Calma 7 Noroeste 0 -- -- 68
2017-08-31 06:00:00 18.4 3 Noroeste 8 Noroeste 0 -- -- 67
2017-08-31 05:00:00 18.7 0 Calma 3 Oeste 0 -- -- 66
2017-08-31 04:00:00 19.2 0 Calma 4 Noroeste 0 -- -- 63
2017-08-31 03:00:00 19.5 0 Calma 6 Noroeste 0 -- -- 61
2017-08-31 02:00:00 20.1 2 Norte 9 Noroeste 0 -- -- 60
2017-08-31 01:00:00 21 4 Noroeste 10 Norte 0 -- -- 55
2017-08-31 00:00:00 21.4 3 Oeste 9 Sudoeste 0 -- -- 53
2017-08-30 23:00:00 22.3 0 Calma 8 Sur 0 -- -- 49
2017-08-30 22:00:00 23.6 3 Sudoeste 8 Sur 0 -- -- 44
2017-08-30 21:00:00 24.5 3 Sudoeste 16 Sudoeste 0 -- -- 40
2017-08-30 20:00:00 25.7 5 Sudoeste 17 Oeste 0 -- -- 38
2017-08-30 19:00:00 26.4 5 Sudoeste 17 Sur 0 -- -- 36
2017-08-30 18:00:00 28 8 Sudoeste 19 Oeste 0 -- -- 34
2017-08-30 17:00:00 28.2 7 Sudoeste 26 Sudoeste 0 -- -- 33
2017-08-30 16:00:00 27.9 10 Sudoeste 23 Sur 0 -- -- 33
2017-08-30 15:00:00 26.6 7 Sudoeste 15 Sur 0 -- -- 37
2017-08-30 14:00:00 25 5 Oeste 14 Sur 0 -- -- 45
2017-08-30 13:00:00 23.9 7 Sudoeste 18 Sudoeste 0 -- -- 49
2017-08-30 12:00:00 23.2 5 Sudoeste 13 Sudoeste 0 -- -- 53
2017-08-30 11:00:00 20.3 4 Sudoeste 11 Sur 0 -- -- 63
2017-08-30 10:00:00 18.1 3 Sur 5 Sur 0 -- -- 77
2017-08-30 09:00:00 16.4 3 Sur 8 Sudoeste 0 -- -- 85
2017-08-30 08:00:00 16 3 Sur 12 Sur 0 -- -- 83
2017-08-30 07:00:00 16.2 6 Sur 12 Sur 0 -- -- 84
2017-08-30 06:00:00 16.4 4 Sudoeste 7 Sudoeste 0 -- -- 85
2017-08-30 05:00:00 16.8 3 Sudoeste 8 Sudoeste 0 -- -- 83
2017-08-30 04:00:00 17.2 3 Sudoeste 10 Oeste 0 -- -- 81
2017-08-30 03:00:00 18.2 3 Oeste 11 Noroeste 0 -- -- 76
2017-08-30 02:00:00 18.9 5 Noroeste 14 Norte 0.2 -- -- 77
2017-08-30 01:00:00 19.6 4 Nordeste 11 Nordeste 0 -- -- 70
2017-08-30 00:00:00 20.2 3 Norte 14 Este 0 -- -- 66
2017-08-29 23:00:00 21.5 3 Este 13 Este 0 -- -- 63
2017-08-29 22:00:00 23.1 4 Sur 11 Sudeste 0 -- -- 57
2017-08-29 21:00:00 24.2 4 Oeste 12 Sur 0 -- -- 42
2017-08-29 20:00:00 25.5 5 Sudoeste 17 Oeste 0 -- -- 36
2017-08-29 19:00:00 27.1 7 Sudoeste 23 Sur 0 -- -- 32
2017-08-29 18:00:00 28 8 Sudoeste 22 Sur 0 -- -- 30
2017-08-29 17:00:00 26.5 7 Sudoeste 29 Sudeste 0 -- -- 31
2017-08-29 16:00:00 27 9 Sur 22 Sur 0 -- -- 42
2017-08-29 15:00:00 25.5 5 Nordeste 16 Sur 0 -- -- 51
2017-08-29 14:00:00 25.9 7 Sudeste 16 Sur 0 -- -- 52
2017-08-29 13:00:00 23.5 5 Este 14 Sur 0 -- -- 63
2017-08-29 12:00:00 23 5 Sur 16 Sur 0 -- -- 66
2017-08-29 11:00:00 21.2 4 Este 13 Nordeste 0 -- -- 66
2017-08-29 10:00:00 19.3 4 Sudeste 10 Sudeste 0 -- -- 80
2017-08-29 09:00:00 17.5 4 Sur 11 Sudeste 0 -- -- 88
2017-08-29 08:00:00 16.6 2 Sudeste 9 Sudeste 0 -- -- 90
2017-08-29 07:00:00 16.8 2 Sudeste 10 Nordeste 0 -- -- 90
2017-08-29 06:00:00 17 2 Norte 6 Sudeste 0 -- -- 91
2017-08-29 05:00:00 17.1 0 Calma 4 Noroeste 0 -- -- 92
2017-08-29 04:00:00 17.1 0 Calma 7 Sudoeste 0 -- -- 91
2017-08-29 03:00:00 17.2 4 Sudeste 17 Sudeste 0 -- -- 89
2017-08-29 02:00:00 17.5 6 Sudeste 15 Sudeste 0 -- -- 88
2017-08-29 01:00:00 18 4 Sudeste 16 Sudeste 0 -- -- 89
2017-08-29 00:00:00 18 2 Sudeste 12 Este 0 -- -- 89
2017-08-28 23:00:00 17.8 5 Sudeste 17 Sudeste 5.4 -- -- 88
2017-08-28 22:00:00 18.2 5 Sudeste 17 Sudeste 0 -- -- 82
2017-08-28 21:00:00 19 3 Sudeste 10 Sur 0 -- -- 81
2017-08-28 20:00:00 19.9 3 Sudeste 10 Oeste 0 -- -- 77
2017-08-28 19:00:00 19.6 6 Oeste 15 Sudoeste 0.6 -- -- 80
2017-08-28 18:00:00 17.9 5 Sudoeste 22 Sudoeste 1.4 -- -- 84
2017-08-28 17:00:00 20 8 Oeste 30 Sudoeste 0 -- -- 69
2017-08-28 16:00:00 24.4 13 Sudoeste 29 Sudoeste 0 -- -- 55
2017-08-28 15:00:00 24.8 8 Sur 18 Sudeste 0 -- -- 57
2017-08-28 14:00:00 25 10 Sur 22 Sur 0 -- -- 60
2017-08-28 13:00:00 25.2 6 Sur 15 Sudeste 0 -- -- 53
2017-08-28 12:00:00 24.9 5 Sur 13 Sur 0 -- -- 55
2017-08-28 11:00:00 24 5 Sudeste 10 Sudeste 0 -- -- 62
2017-08-28 10:00:00 22.5 4 Sudeste 15 Este 0 -- -- 67
2017-08-28 09:00:00 20.6 3 Sudeste 6 Sudeste 0 -- -- 68
2017-08-28 08:00:00 20.1 2 Oeste 8 Sudeste 0 -- -- 67
2017-08-28 07:00:00 20.1 4 Sudeste 10 Sudeste 0 -- -- 68
2017-08-28 06:00:00 20.3 4 Sudeste 18 Sudeste 0 -- -- 67
2017-08-28 05:00:00 20.7 5 Sudeste 14 Este 0 -- -- 65
2017-08-28 04:00:00 20.7 5 Este 12 Este 0 -- -- 65
2017-08-28 03:00:00 21.2 4 Sudeste 15 Este 0 -- -- 62
2017-08-28 02:00:00 21.5 5 Sudeste 18 Este 0 -- -- 60
2017-08-28 01:00:00 22 9 Sudeste 25 Este 0 -- -- 57
2017-08-28 00:00:00 21.6 8 Sudeste 32 Este 0 -- -- 58
2017-08-27 23:00:00 21.5 8 Sudeste 18 Este 0 -- -- 62
2017-08-27 22:00:00 21.7 6 Sudeste 18 Sudeste 0 -- -- 64
2017-08-27 21:00:00 23 6 Sudeste 16 Sur 0 -- -- 61
2017-08-27 20:00:00 24.6 9 Sur 21 Sur 0 -- -- 51
2017-08-27 19:00:00 25.7 11 Sur 32 Sur 0 -- -- 48
2017-08-27 18:00:00 23.4 18 Sur 42 Sudoeste 0 -- -- 54
2017-08-27 17:00:00 24.3 15 Sur 33 Sur 0 -- -- 51
2017-08-27 16:00:00 24.3 12 Sur 28 Sur 0 -- -- 57
2017-08-27 15:00:00 24 10 Sur 22 Sudeste 0.2 -- -- 58
2017-08-27 14:00:00 24.4 3 Noroeste 36 Oeste 0.2 -- -- 55
2017-08-27 13:00:00 28.3 10 Sudoeste 30 Oeste 0 -- -- 39
2017-08-27 12:00:00 27.8 5 Sur 16 Sudeste 0 -- -- 44
2017-08-27 11:00:00 26.1 5 Sudeste 19 Sur 0 -- -- 49
2017-08-27 10:00:00 24.8 7 Sudeste 19 Este 0 -- -- 54
2017-08-27 09:00:00 23.6 6 Este 18 Nordeste 0 -- -- 58
2017-08-27 08:00:00 23.1 6 Norte 14 Este 0 -- -- 60
2017-08-27 07:00:00 23.5 4 Sudeste 12 Sur 0 -- -- 56
2017-08-27 06:00:00 23.8 4 Sudeste 12 Este 0 -- -- 54
2017-08-27 05:00:00 24 5 Sudeste 18 Sudeste 0 -- -- 56
2017-08-27 04:00:00 24.6 5 Sudeste 23 Sudeste 0 -- -- 55
2017-08-27 03:00:00 24.9 8 Sudeste 22 Este 0 -- -- 50
2017-08-27 02:00:00 25.8 6 Sudeste 22 Este 0 -- -- 47
2017-08-27 01:00:00 26.9 7 Sudeste 18 Este 0 -- -- 42
2017-08-27 00:00:00 27.9 6 Sudeste 20 Nordeste 0 -- -- 38
2017-08-26 23:00:00 28.9 8 Nordeste 24 Nordeste 0 -- -- 23
2017-08-26 22:00:00 29.5 9 Norte 18 Nordeste 0 -- -- 22
2017-08-26 21:00:00 30.6 7 Norte 21 Norte 0 -- -- 21
2017-08-26 20:00:00 31.4 9 Norte 24 Nordeste 0 -- -- 21
2017-08-26 19:00:00 32.4 10 Norte 20 Norte 0 -- -- 20
2017-08-26 18:00:00 32.9 9 Norte 23 Norte 0 -- -- 20
2017-08-26 17:00:00 33.1 9 Noroeste 26 Noroeste 0 -- -- 19
2017-08-26 16:00:00 34.2 7 Norte 18 Noroeste 0 -- -- 20
2017-08-26 15:00:00 34.3 6 Oeste 19 Oeste 0 -- -- 23
2017-08-26 14:00:00 34.1 7 Oeste 24 Sudoeste 0 -- -- 25
2017-08-26 13:00:00 33.8 6 Oeste 23 Oeste 0 -- -- 27
2017-08-26 12:00:00 30.9 7 Sudeste 16 Este 0 -- -- 35
2017-08-26 11:00:00 27.7 6 Sudeste 17 Sudeste 0 -- -- 47
2017-08-26 10:00:00 24.1 6 Sudeste 18 Nordeste 0 -- -- 61
2017-08-26 09:00:00 22 7 Sudeste 18 Este 0 -- -- 70
2017-08-26 08:00:00 22 6 Sudeste 16 Este 0 -- -- 68
2017-08-26 07:00:00 22.3 5 Sudeste 14 Este 0 -- -- 59
2017-08-26 06:00:00 23.1 4 Sudeste 13 Este 0 -- -- 53
2017-08-26 05:00:00 23.5 5 Sudeste 15 Sudeste 0 -- -- 52
2017-08-26 04:00:00 25.3 4 Sudeste 8 Sudeste 0 -- -- 31
2017-08-26 03:00:00 25.8 3 Sur 12 Sur 0 -- -- 30
2017-08-26 02:00:00 26.7 7 Sur 14 Sur 0 -- -- 27
2017-08-26 01:00:00 27.6 6 Sur 12 Sur 0 -- -- 27
2017-08-26 00:00:00 28.2 5 Sudeste 13 Sur 0 -- -- 36
2017-08-25 23:00:00 28.7 4 Sudeste 15 Este 0 -- -- 37
2017-08-25 22:00:00 30.5 6 Sudeste 16 Este 0 -- -- 30
2017-08-25 21:00:00 33 4 Sur 17 Oeste 0 -- -- 18
2017-08-25 20:00:00 35.1 9 Sudoeste 29 Oeste 0 -- -- 16
2017-08-25 19:00:00 35.4 10 Sudoeste 48 Sudoeste 0 -- -- 16
2017-08-25 18:00:00 36.4 12 Oeste 33 Oeste 0 -- -- 18
2017-08-25 17:00:00 37 10 Oeste 31 Oeste 0 -- -- 18
2017-08-25 16:00:00 35.7 12 Sudoeste 29 Sur 0 -- -- 19
2017-08-25 15:00:00 36.1 8 Sudoeste 26 Sur 0 -- -- 19
2017-08-25 14:00:00 35.4 10 Sudoeste 27 Sudoeste 0 -- -- 20
2017-08-25 13:00:00 33.9 8 Sudoeste 17 Sur 0 -- -- 21
2017-08-25 12:00:00 31.6 6 Sur 13 Sur 0 -- -- 26
2017-08-25 11:00:00 28.4 4 Sudeste 11 Sudeste 0 -- -- 31
2017-08-25 10:00:00 24.3 3 Sudeste 13 Sudeste 0 -- -- 42
2017-08-25 09:00:00 21.3 6 Sudeste 15 Este 0 -- -- 47
2017-08-25 08:00:00 21.2 5 Sudeste 12 Sudeste 0 -- -- 47
2017-08-25 07:00:00 21.9 3 Sur 10 Sur 0 -- -- 48
2017-08-25 06:00:00 22.3 5 Sudeste 11 Sudeste 0 -- -- 51
2017-08-25 05:00:00 23.2 5 Sudeste 14 Sudeste 0 -- -- 50
2017-08-25 04:00:00 24.5 5 Sudeste 13 Sudeste 0 -- -- 48
2017-08-25 03:00:00 25.5 4 Sudeste 12 Sudeste 0 -- -- 43
2017-08-25 02:00:00 25.8 0 Calma 6 Sur 0 -- -- 27
2017-08-25 01:00:00 26.7 5 Sur 9 Sur 0 -- -- 23
2017-08-25 00:00:00 28.3 3 Norte 12 Norte 0 -- -- 21